createdAt,value
2022-12-04T00:00:23.566Z,27.73
2022-12-04T00:03:44.793Z,29.58
2022-12-04T00:06:59.239Z,29.75
2022-12-04T00:10:08.765Z,28.23
2022-12-04T00:14:06.465Z,28.42
2022-12-04T00:17:21.616Z,29.65
2022-12-04T00:21:15.094Z,28.17
2022-12-04T00:24:25.641Z,29.60
2022-12-04T00:27:46.441Z,27.33
2022-12-04T00:31:06.025Z,27.85
2022-12-04T00:34:16.124Z,27.25
2022-12-04T00:37:28.539Z,26.80
2022-12-04T00:44:06.417Z,26.05
2022-12-04T00:47:26.588Z,28.58
2022-12-04T00:50:34.645Z,26.42
2022-12-04T00:53:49.609Z,27.75
2022-12-04T00:57:08.305Z,28.40
2022-12-04T01:01:11.970Z,29.40
2022-12-04T01:04:20.351Z,28.08
2022-12-04T01:07:28.630Z,27.90
2022-12-04T01:10:37.694Z,30.08
2022-12-04T01:13:48.939Z,27.20
2022-12-04T01:16:55.957Z,28.83
2022-12-04T01:20:41.831Z,28.20
2022-12-04T01:23:56.046Z,27.35
2022-12-04T01:28:03.326Z,28.30
2022-12-04T01:31:23.946Z,28.92
2022-12-04T01:34:28.680Z,27.55
2022-12-04T01:37:51.529Z,29.02
2022-12-04T01:41:01.482Z,30.70
2022-12-04T01:48:05.072Z,28.25
2022-12-04T01:51:24.440Z,27.20
2022-12-04T01:54:44.272Z,29.35
2022-12-04T01:57:56.159Z,28.33
2022-12-04T02:01:13.223Z,29.70
2022-12-04T02:04:20.852Z,29.33
2022-12-04T02:07:29.483Z,30.55
2022-12-04T02:11:08.883Z,28.60
2022-12-04T02:14:53.439Z,29.48
2022-12-04T02:18:43.500Z,29.60
2022-12-04T02:21:57.347Z,28.67
2022-12-04T02:25:33.925Z,29.48
2022-12-04T02:28:57.619Z,28.30
2022-12-04T02:32:25.412Z,27.33
2022-12-04T02:36:12.737Z,26.85
2022-12-04T02:39:56.918Z,28.23
2022-12-04T02:46:44.246Z,27.10
2022-12-04T02:50:01.252Z,27.70
2022-12-04T02:53:27.038Z,27.50
2022-12-04T02:56:40.512Z,26.88
2022-12-04T02:59:54.058Z,27.08
2022-12-04T03:06:24.505Z,26.77
2022-12-04T03:10:40.937Z,27.50
2022-12-04T03:14:17.046Z,27.17
2022-12-04T03:18:09.303Z,27.77
2022-12-04T03:21:40.146Z,26.33
2022-12-04T03:24:55.541Z,26.27
2022-12-04T03:28:16.733Z,26.45
2022-12-04T03:31:57.019Z,27.55
2022-12-04T03:35:37.250Z,27.05
2022-12-04T03:39:02.794Z,28.85
2022-12-04T03:42:30.049Z,28.25
2022-12-04T03:45:59.170Z,26.63
2022-12-04T03:49:18.975Z,30.15
2022-12-04T03:53:03.731Z,27.58
2022-12-04T03:56:26.129Z,28.10
2022-12-04T03:59:58.448Z,29.67
2022-12-04T04:03:25.010Z,27.73
2022-12-04T04:06:42.743Z,27.35
2022-12-04T04:10:21.417Z,29.35
2022-12-04T04:14:09.374Z,28.40
2022-12-04T04:17:39.181Z,28.35
2022-12-04T04:21:17.897Z,27.73
2022-12-04T04:24:56.354Z,29.42
2022-12-04T04:28:32.922Z,29.52
2022-12-04T04:32:00.075Z,27.45
2022-12-04T04:35:39.617Z,27.92
2022-12-04T04:39:24.540Z,29.05
2022-12-04T04:46:16.007Z,21.97
2022-12-04T04:49:31.056Z,26.90
2022-12-04T04:52:47.357Z,29.25
2022-12-04T04:55:56.403Z,28.58
2022-12-04T04:59:06.130Z,30.38
2022-12-04T05:02:25.743Z,28.20
2022-12-04T05:05:35.378Z,29.42
2022-12-04T05:12:34.832Z,28.25
2022-12-04T05:15:57.546Z,27.55
2022-12-04T05:19:27.426Z,30.45
2022-12-04T05:22:39.828Z,30.02
2022-12-04T05:26:02.744Z,28.77
2022-12-04T05:29:10.814Z,28.60
2022-12-04T05:32:18.527Z,28.65
2022-12-04T05:35:25.833Z,28.85
2022-12-04T05:38:36.171Z,28.88
2022-12-04T05:41:53.051Z,30.77
2022-12-04T05:45:09.813Z,29.20
2022-12-04T05:48:30.613Z,29.15
2022-12-04T05:51:45.015Z,28.17
2022-12-04T05:58:02.256Z,26.45
2022-12-04T06:01:53.043Z,26.77
2022-12-04T06:05:04.362Z,27.17
2022-12-04T06:08:20.090Z,25.67
2022-12-04T06:11:36.779Z,27.83
2022-12-04T06:14:48.016Z,28.02
2022-12-04T06:18:00.379Z,27.65
2022-12-04T06:21:09.108Z,26.27
2022-12-04T06:25:16.377Z,26.70
2022-12-04T06:28:43.310Z,25.00
2022-12-04T06:31:56.283Z,27.45
2022-12-04T06:38:20.980Z,26.60
2022-12-04T06:41:29.780Z,24.98
2022-12-04T06:44:40.118Z,25.05
2022-12-04T06:47:52.975Z,27.48
2022-12-04T06:51:07.647Z,27.33
2022-12-04T06:54:19.560Z,27.55
2022-12-04T06:57:29.561Z,26.30
2022-12-04T07:00:46.432Z,26.98
2022-12-04T07:03:55.502Z,26.77
2022-12-04T07:07:03.841Z,26.23
2022-12-04T07:10:16.122Z,26.63
2022-12-04T07:13:31.224Z,26.85
2022-12-04T07:16:43.348Z,26.60
2022-12-04T07:19:54.075Z,24.33
2022-12-04T07:23:07.903Z,26.33
2022-12-04T07:26:17.226Z,27.00
2022-12-04T07:29:27.015Z,27.45
2022-12-04T07:32:45.144Z,26.25
2022-12-04T07:36:00.335Z,26.05
2022-12-04T07:39:14.952Z,25.48
2022-12-04T07:42:31.875Z,27.17
2022-12-04T07:45:40.366Z,26.77
2022-12-04T07:49:39.253Z,30.95
2022-12-04T07:52:49.603Z,28.67
2022-12-04T07:56:11.442Z,28.27
2022-12-04T07:59:17.913Z,28.40
2022-12-04T08:02:57.537Z,27.38
2022-12-04T08:06:13.625Z,30.13
2022-12-04T08:09:23.732Z,27.05
2022-12-04T08:12:39.941Z,28.58
2022-12-04T08:15:51.831Z,31.40
2022-12-04T08:19:09.794Z,27.08
2022-12-04T08:22:24.994Z,31.08
2022-12-04T08:25:50.247Z,29.13
2022-12-04T08:29:00.392Z,29.85
2022-12-04T08:32:08.623Z,31.02
2022-12-04T08:35:16.208Z,28.33
2022-12-04T08:38:30.863Z,33.38
2022-12-04T08:41:36.912Z,31.10
2022-12-04T08:44:52.917Z,30.17
2022-12-04T08:48:02.597Z,30.27
2022-12-04T08:51:29.536Z,29.95
2022-12-04T08:54:42.835Z,29.60
2022-12-04T08:58:16.123Z,28.58
2022-12-04T09:01:23.903Z,30.67
2022-12-04T09:04:28.928Z,29.70
2022-12-04T09:07:50.125Z,28.02
2022-12-04T09:11:08.081Z,28.75
2022-12-04T09:14:16.379Z,28.42
2022-12-04T09:17:46.676Z,28.63
2022-12-04T09:21:07.087Z,29.80
2022-12-04T09:24:14.628Z,29.73
2022-12-04T09:27:38.867Z,29.67
2022-12-04T09:30:43.432Z,29.05
2022-12-04T09:33:59.737Z,29.45
2022-12-04T09:37:08.177Z,29.92
2022-12-04T09:40:47.683Z,29.38
2022-12-04T09:44:59.869Z,30.80
2022-12-04T09:48:17.098Z,28.15
2022-12-04T09:51:32.684Z,27.17
2022-12-04T09:54:55.705Z,28.33
2022-12-04T09:58:43.610Z,28.20
2022-12-04T10:02:47.569Z,29.35
2022-12-04T10:06:11.744Z,28.40
2022-12-04T10:09:38.716Z,29.05
2022-12-04T10:13:20.258Z,30.00
2022-12-04T10:17:01.659Z,28.58
2022-12-04T10:20:30.486Z,30.58
2022-12-04T10:23:56.079Z,30.90
2022-12-04T10:27:12.063Z,30.00
2022-12-04T10:30:31.143Z,30.15
2022-12-04T10:33:50.586Z,29.60
2022-12-04T10:37:01.614Z,29.50
2022-12-04T10:40:41.631Z,28.42
2022-12-04T10:43:49.184Z,30.58
2022-12-04T10:47:01.997Z,29.88
2022-12-04T10:50:25.580Z,32.47
2022-12-04T10:53:35.347Z,23.70
2022-12-04T10:56:55.585Z,30.63
2022-12-04T11:00:00.518Z,28.90
2022-12-04T11:03:25.084Z,30.15
2022-12-04T11:06:30.454Z,29.58
2022-12-04T11:09:35.780Z,30.60
2022-12-04T11:12:59.447Z,29.70
2022-12-04T11:16:06.843Z,28.60
2022-12-04T11:19:29.798Z,29.20
2022-12-04T11:22:55.713Z,27.83
2022-12-04T11:26:06.632Z,28.70
2022-12-04T11:29:17.854Z,28.30
2022-12-04T11:32:35.945Z,28.05
2022-12-04T11:35:50.640Z,26.63
2022-12-04T11:39:42.988Z,27.95
2022-12-04T11:43:03.402Z,26.02
2022-12-04T11:46:21.736Z,25.10
2022-12-04T11:49:28.225Z,24.55
2022-12-04T11:53:10.279Z,26.17
2022-12-04T11:56:46.207Z,24.55
2022-12-04T12:00:05.457Z,24.15
2022-12-04T12:03:39.663Z,25.00
2022-12-04T12:07:33.658Z,25.05
2022-12-04T12:10:51.810Z,29.63
2022-12-04T12:14:08.594Z,26.58
2022-12-04T12:18:21.060Z,24.33
2022-12-04T12:21:51.669Z,23.90
2022-12-04T12:25:41.434Z,23.80
2022-12-04T12:29:17.064Z,24.42
2022-12-04T12:32:30.117Z,23.25
2022-12-04T12:35:42.826Z,21.92
2022-12-04T12:39:03.585Z,24.17
2022-12-04T12:42:40.547Z,22.80
2022-12-04T12:46:20.745Z,23.83
2022-12-04T12:49:50.958Z,24.13
2022-12-04T12:53:28.099Z,22.85
2022-12-04T12:56:47.767Z,24.10
2022-12-04T13:00:17.406Z,22.88
2022-12-04T13:03:58.406Z,22.48
2022-12-04T13:07:30.838Z,22.38
2022-12-04T13:10:54.897Z,22.38
2022-12-04T13:14:23.968Z,22.33
2022-12-04T13:17:42.099Z,23.67
2022-12-04T13:20:57.589Z,22.75
2022-12-04T13:24:45.148Z,21.60
2022-12-04T13:28:33.792Z,21.55
2022-12-04T13:32:36.130Z,22.17
2022-12-04T13:36:18.935Z,23.08
2022-12-04T13:51:42.692Z,21.88
2022-12-04T13:54:24.552Z,23.90
2022-12-04T13:58:21.264Z,22.27
2022-12-04T14:02:22.129Z,23.77
2022-12-04T14:05:50.447Z,22.33
2022-12-04T14:09:31.650Z,21.77
2022-12-04T14:13:17.407Z,26.73
2022-12-04T14:16:42.706Z,21.90
2022-12-04T14:27:13.649Z,16.50
2022-12-04T14:38:01.937Z,21.92
2022-12-04T14:41:27.415Z,21.73
2022-12-04T14:50:06.420Z,22.08
2022-12-04T14:58:43.929Z,23.13
2022-12-04T15:02:02.687Z,22.02
2022-12-04T15:16:59.841Z,20.95
2022-12-04T15:20:46.171Z,25.75
2022-12-04T15:24:20.159Z,21.27
2022-12-04T15:27:37.190Z,20.58
2022-12-04T15:30:55.829Z,21.20
2022-12-04T15:34:22.505Z,22.33
2022-12-04T15:38:00.894Z,20.60
2022-12-04T15:41:45.225Z,19.88
2022-12-04T15:45:14.006Z,20.05
2022-12-04T15:48:33.187Z,20.88
2022-12-04T15:51:39.584Z,19.55
2022-12-04T15:55:00.346Z,20.50
2022-12-04T15:58:23.357Z,20.45
2022-12-04T16:01:52.003Z,20.27
2022-12-04T16:05:41.668Z,20.40
2022-12-04T16:08:57.796Z,21.30
2022-12-04T16:12:26.041Z,22.40
2022-12-04T16:16:06.347Z,18.67
2022-12-04T16:19:55.132Z,21.52
2022-12-04T16:27:05.735Z,23.77
2022-12-04T16:30:44.122Z,21.58
2022-12-04T16:38:29.027Z,22.33
2022-12-04T16:45:37.795Z,21.63
2022-12-04T16:49:33.173Z,20.10
2022-12-04T16:53:23.738Z,21.70
2022-12-04T16:57:29.566Z,24.55
2022-12-04T17:05:21.514Z,24.30
2022-12-04T17:08:39.302Z,24.02
2022-12-04T17:12:20.625Z,24.52
2022-12-04T17:16:09.382Z,21.52
2022-12-04T17:19:17.742Z,20.55
2022-12-04T17:22:47.975Z,22.92
2022-12-04T17:26:02.430Z,20.23
2022-12-04T17:29:16.879Z,22.30
2022-12-04T17:32:31.445Z,21.42
2022-12-04T17:35:40.991Z,24.70
2022-12-04T17:38:46.801Z,20.65
2022-12-04T17:41:51.684Z,19.33
2022-12-04T17:44:57.203Z,19.65
2022-12-04T17:48:01.928Z,20.77
2022-12-04T17:51:15.772Z,23.38
2022-12-04T17:54:20.331Z,21.85
2022-12-04T17:57:25.537Z,23.17
2022-12-04T18:00:30.511Z,22.38
2022-12-04T18:03:36.383Z,23.50
2022-12-04T18:06:43.605Z,21.42
2022-12-04T18:09:50.544Z,21.25
2022-12-04T18:12:55.268Z,20.83
2022-12-04T18:16:09.261Z,21.30
2022-12-04T18:19:14.817Z,21.70
2022-12-04T18:22:19.142Z,25.13
2022-12-04T18:25:42.606Z,20.17
2022-12-04T18:28:48.470Z,21.02
2022-12-04T18:31:53.548Z,19.83
2022-12-04T18:34:58.124Z,20.88
2022-12-04T18:38:03.336Z,21.80
2022-12-04T18:41:12.060Z,21.02
2022-12-04T18:44:20.421Z,21.20
2022-12-04T18:47:26.832Z,22.08
2022-12-04T18:50:31.542Z,23.38
2022-12-04T18:53:36.212Z,23.67
2022-12-04T18:56:41.253Z,23.20
2022-12-04T18:59:45.905Z,23.67
2022-12-04T19:02:50.569Z,23.33
2022-12-04T19:05:55.125Z,20.95
2022-12-04T19:09:02.650Z,22.58
2022-12-04T19:12:07.574Z,22.08
2022-12-04T19:15:12.736Z,22.55
2022-12-04T19:18:17.644Z,24.40
2022-12-04T19:21:25.859Z,24.90
2022-12-04T19:24:38.681Z,25.23
2022-12-04T19:27:45.820Z,24.42
2022-12-04T19:30:50.757Z,27.83
2022-12-04T19:33:59.689Z,26.20
2022-12-04T19:37:04.415Z,26.52
2022-12-04T19:40:10.069Z,25.25
2022-12-04T19:43:14.962Z,24.17
2022-12-04T19:46:26.426Z,24.33
2022-12-04T19:49:37.219Z,24.42
2022-12-04T19:52:45.402Z,24.98
2022-12-04T19:55:50.481Z,27.48
2022-12-04T19:58:59.057Z,27.40
2022-12-04T20:02:28.931Z,27.02
2022-12-04T20:05:37.698Z,24.23
2022-12-04T20:08:42.980Z,25.70
2022-12-04T20:11:49.576Z,25.45
2022-12-04T20:14:54.319Z,26.73
2022-12-04T20:17:59.524Z,25.17
2022-12-04T20:21:11.090Z,25.77
2022-12-04T20:24:20.029Z,26.27
2022-12-04T20:27:28.194Z,27.83
2022-12-04T20:30:35.249Z,26.40
2022-12-04T20:33:41.363Z,26.02
2022-12-04T20:36:48.690Z,27.02
2022-12-04T20:39:57.407Z,25.98
2022-12-04T20:43:07.592Z,26.42
2022-12-04T20:46:52.363Z,27.08
2022-12-04T20:49:57.112Z,26.75
2022-12-04T20:53:02.780Z,26.27
2022-12-04T20:56:08.468Z,25.30
2022-12-04T20:59:16.573Z,25.15
2022-12-04T21:02:21.391Z,26.13
2022-12-04T21:05:26.407Z,23.52
2022-12-04T21:08:50.027Z,24.73
2022-12-04T21:11:56.428Z,25.17
2022-12-04T21:15:19.717Z,24.00
2022-12-04T21:18:24.666Z,23.35
2022-12-04T21:21:29.907Z,23.63
2022-12-04T21:24:38.817Z,22.58
2022-12-04T21:27:43.633Z,23.33
2022-12-04T21:30:56.699Z,22.38
2022-12-04T21:34:03.306Z,23.08
2022-12-04T21:37:11.390Z,22.35
2022-12-04T21:40:16.351Z,23.40
2022-12-04T21:43:21.526Z,22.88
2022-12-04T21:46:28.617Z,23.25
2022-12-04T21:49:33.652Z,21.80
2022-12-04T21:52:38.252Z,23.73
2022-12-04T21:55:57.159Z,23.40
2022-12-04T21:59:02.242Z,22.45
2022-12-04T22:02:07.850Z,22.05
2022-12-04T22:05:12.157Z,21.67
2022-12-04T22:08:16.647Z,21.05
2022-12-04T22:11:21.906Z,21.20
2022-12-04T22:14:26.708Z,21.50
2022-12-04T22:17:31.352Z,22.10
2022-12-04T22:20:39.609Z,22.00
2022-12-04T22:23:44.494Z,21.50
2022-12-04T22:26:49.270Z,19.88
2022-12-04T22:29:53.559Z,18.98
2022-12-04T22:32:58.350Z,17.73
2022-12-04T22:36:12.490Z,18.75
2022-12-04T22:39:19.893Z,15.98
2022-12-04T22:42:27.381Z,16.77
2022-12-04T22:45:31.877Z,16.15
2022-12-04T22:48:38.536Z,16.33
2022-12-04T22:51:43.628Z,17.30
2022-12-04T22:54:51.349Z,17.95
2022-12-04T22:57:56.023Z,16.10
2022-12-04T23:01:00.704Z,15.88
2022-12-04T23:04:05.680Z,14.40
2022-12-04T23:07:10.621Z,13.85
2022-12-04T23:10:15.437Z,13.70
2022-12-04T23:13:20.221Z,13.20
2022-12-04T23:16:25.403Z,12.68
2022-12-04T23:19:31.356Z,12.48
2022-12-04T23:22:36.145Z,11.30
2022-12-04T23:25:41.288Z,11.43
2022-12-04T23:28:46.624Z,10.90
2022-12-04T23:31:51.404Z,10.80
2022-12-04T23:34:56.305Z,10.45
2022-12-04T23:38:01.075Z,10.70
2022-12-04T23:41:22.230Z,10.98
2022-12-04T23:44:27.084Z,11.55
2022-12-04T23:47:31.677Z,11.48
2022-12-04T23:50:36.399Z,11.48
2022-12-04T23:53:41.775Z,9.70
2022-12-04T23:56:49.362Z,10.35
2022-12-04T23:59:54.503Z,9.75
